sensor_id;sensor_type;location;lat;lon;timestamp;pressure;altitude;pressure_sealevel;temperature;humidity
10008;BME280;5043;41.766;26.204;2023-04-07T00:01:37;100806.69;;;7.54;85.09
10008;BME280;5043;41.766;26.204;2023-04-07T00:04:03;100789.88;;;7.42;85.51
10008;BME280;5043;41.766;26.204;2023-04-07T00:06:28;100829.06;;;7.45;85.06
10008;BME280;5043;41.766;26.204;2023-04-07T00:08:53;100810.78;;;7.44;85.50
10008;BME280;5043;41.766;26.204;2023-04-07T00:11:19;100834.31;;;7.45;86.03
10008;BME280;5043;41.766;26.204;2023-04-07T00:13:44;100736.97;;;7.05;85.54
10008;BME280;5043;41.766;26.204;2023-04-07T00:16:10;100800.22;;;7.30;87.05
10008;BME280;5043;41.766;26.204;2023-04-07T00:18:35;100807.56;;;7.39;87.06
10008;BME280;5043;41.766;26.204;2023-04-07T00:21:01;100745.69;;;6.89;88.01
10008;BME280;5043;41.766;26.204;2023-04-07T00:23:26;100844.16;;;7.26;88.20
10008;BME280;5043;41.766;26.204;2023-04-07T00:25:51;100732.09;;;6.67;89.94
10008;BME280;5043;41.766;26.204;2023-04-07T00:28:17;100748.22;;;6.75;90.00
10008;BME280;5043;41.766;26.204;2023-04-07T00:30:42;100820.13;;;7.18;90.88
10008;BME280;5043;41.766;26.204;2023-04-07T00:33:08;100824.69;;;7.15;90.71
10008;BME280;5043;41.766;26.204;2023-04-07T00:35:33;100825.03;;;7.09;89.75
10008;BME280;5043;41.766;26.204;2023-04-07T00:37:58;100830.38;;;7.07;88.76
10008;BME280;5043;41.766;26.204;2023-04-07T00:40:24;100836.88;;;7.00;89.64
10008;BME280;5043;41.766;26.204;2023-04-07T00:42:51;100820.66;;;6.93;90.42
10008;BME280;5043;41.766;26.204;2023-04-07T00:45:16;100832.06;;;6.92;91.31
10008;BME280;5043;41.766;26.204;2023-04-07T00:47:42;100767.25;;;6.48;91.14
10008;BME280;5043;41.766;26.204;2023-04-07T00:50:07;100857.41;;;6.92;92.15
10008;BME280;5043;41.766;26.204;2023-04-07T00:52:33;100827.41;;;6.82;91.16
10008;BME280;5043;41.766;26.204;2023-04-07T00:54:59;100832.81;;;6.79;90.86
10008;BME280;5043;41.766;26.204;2023-04-07T00:57:25;100797.13;;;6.61;90.62
10008;BME280;5043;41.766;26.204;2023-04-07T00:59:54;100819.09;;;6.74;91.03
10008;BME280;5043;41.766;26.204;2023-04-07T01:05:03;100821.47;;;6.78;92.61
10008;BME280;5043;41.766;26.204;2023-04-07T01:07:35;100817.09;;;6.79;90.58
10008;BME280;5043;41.766;26.204;2023-04-07T01:10:06;100789.16;;;6.62;91.13
10008;BME280;5043;41.766;26.204;2023-04-07T01:12:51;100818.75;;;6.80;89.96
10008;BME280;5043;41.766;26.204;2023-04-07T01:15:20;100845.91;;;6.94;90.86
10008;BME280;5043;41.766;26.204;2023-04-07T01:17:54;100840.25;;;6.86;90.44
10008;BME280;5043;41.766;26.204;2023-04-07T01:20:26;100756.34;;;6.40;90.71
10008;BME280;5043;41.766;26.204;2023-04-07T01:22:54;100785.44;;;6.51;91.45
10008;BME280;5043;41.766;26.204;2023-04-07T01:30:30;100825.69;;;6.81;91.83
10008;BME280;5043;41.766;26.204;2023-04-07T01:32:58;100826.47;;;6.83;91.82
10008;BME280;5043;41.766;26.204;2023-04-07T01:35:25;100847.13;;;6.89;91.37
10008;BME280;5043;41.766;26.204;2023-04-07T01:37:53;100821.38;;;6.80;91.60
10008;BME280;5043;41.766;26.204;2023-04-07T01:40:20;100825.53;;;6.84;92.28
10008;BME280;5043;41.766;26.204;2023-04-07T01:42:46;100838.91;;;6.79;90.98
10008;BME280;5043;41.766;26.204;2023-04-07T01:45:14;100846.34;;;6.87;89.94
10008;BME280;5043;41.766;26.204;2023-04-07T01:47:40;100864.78;;;6.85;90.32
10008;BME280;5043;41.766;26.204;2023-04-07T01:50:06;100870.03;;;6.85;90.15
10008;BME280;5043;41.766;26.204;2023-04-07T01:52:34;100846.44;;;6.85;91.26
10008;BME280;5043;41.766;26.204;2023-04-07T01:55:00;100839.66;;;6.81;90.89
10008;BME280;5043;41.766;26.204;2023-04-07T01:57:26;100838.91;;;6.79;90.63
10008;BME280;5043;41.766;26.204;2023-04-07T01:59:52;100830.94;;;6.81;91.93
10008;BME280;5043;41.766;26.204;2023-04-07T02:02:18;100875.97;;;6.89;90.85
10008;BME280;5043;41.766;26.204;2023-04-07T02:04:56;100853.28;;;6.88;90.06
10008;BME280;5043;41.766;26.204;2023-04-07T02:07:28;100854.63;;;6.95;90.41
10008;BME280;5043;41.766;26.204;2023-04-07T02:09:57;100852.19;;;6.92;91.52
10008;BME280;5043;41.766;26.204;2023-04-07T02:12:26;100877.31;;;6.96;93.06
10008;BME280;5043;41.766;26.204;2023-04-07T02:14:53;100862.84;;;7.05;93.04
10008;BME280;5043;41.766;26.204;2023-04-07T02:17:20;100842.69;;;6.89;92.37
10008;BME280;5043;41.766;26.204;2023-04-07T02:19:48;100786.63;;;6.76;91.78
10008;BME280;5043;41.766;26.204;2023-04-07T02:22:15;100882.31;;;7.16;91.54
10008;BME280;5043;41.766;26.204;2023-04-07T02:24:41;100868.84;;;7.07;90.71
10008;BME280;5043;41.766;26.204;2023-04-07T02:27:09;100878.34;;;7.09;91.19
10008;BME280;5043;41.766;26.204;2023-04-07T02:29:35;100870.13;;;7.15;91.38
10008;BME280;5043;41.766;26.204;2023-04-07T02:32:00;100873.28;;;7.22;91.86
10008;BME280;5043;41.766;26.204;2023-04-07T02:34:26;100873.69;;;7.30;91.30
10008;BME280;5043;41.766;26.204;2023-04-07T02:36:51;100862.00;;;7.20;91.76
10008;BME280;5043;41.766;26.204;2023-04-07T02:39:17;100800.34;;;6.97;90.65
10008;BME280;5043;41.766;26.204;2023-04-07T02:41:42;100851.28;;;7.24;90.62
10008;BME280;5043;41.766;26.204;2023-04-07T02:44:07;100900.25;;;7.39;89.77
10008;BME280;5043;41.766;26.204;2023-04-07T02:46:33;100902.53;;;7.30;89.32
10008;BME280;5043;41.766;26.204;2023-04-07T02:48:59;100905.00;;;7.17;89.10
10008;BME280;5043;41.766;26.204;2023-04-07T02:51:24;100876.47;;;7.11;89.20
10008;BME280;5043;41.766;26.204;2023-04-07T02:53:51;100875.88;;;7.06;89.55
10008;BME280;5043;41.766;26.204;2023-04-07T02:56:16;100825.25;;;6.73;90.17
10008;BME280;5043;41.766;26.204;2023-04-07T02:58:42;100889.00;;;7.06;91.17
10008;BME280;5043;41.766;26.204;2023-04-07T03:01:07;100895.09;;;7.07;92.23
10008;BME280;5043;41.766;26.204;2023-04-07T03:03:33;100888.16;;;7.06;92.52
10008;BME280;5043;41.766;26.204;2023-04-07T03:05:58;100902.28;;;7.03;93.33
10008;BME280;5043;41.766;26.204;2023-04-07T03:08:24;100882.47;;;6.98;93.55
10008;BME280;5043;41.766;26.204;2023-04-07T03:10:49;100883.34;;;6.98;93.43
10008;BME280;5043;41.766;26.204;2023-04-07T03:13:15;100880.19;;;6.91;93.49
10008;BME280;5043;41.766;26.204;2023-04-07T03:15:43;100911.16;;;7.01;93.17
10008;BME280;5043;41.766;26.204;2023-04-07T03:18:08;100895.78;;;7.10;93.77
10008;BME280;5043;41.766;26.204;2023-04-07T03:20:35;100893.31;;;7.07;94.00
10008;BME280;5043;41.766;26.204;2023-04-07T03:23:01;100814.91;;;6.54;94.50
10008;BME280;5043;41.766;26.204;2023-04-07T03:25:27;100900.06;;;6.96;93.97
10008;BME280;5043;41.766;26.204;2023-04-07T03:27:52;100882.97;;;6.88;94.45
10008;BME280;5043;41.766;26.204;2023-04-07T03:30:17;100895.59;;;6.98;93.78
10008;BME280;5043;41.766;26.204;2023-04-07T03:32:43;100894.84;;;6.96;94.15
10008;BME280;5043;41.766;26.204;2023-04-07T03:35:09;100895.59;;;6.98;94.19
10008;BME280;5043;41.766;26.204;2023-04-07T03:37:34;100921.13;;;6.94;94.64
10008;BME280;5043;41.766;26.204;2023-04-07T03:40:00;100838.03;;;6.63;94.93
10008;BME280;5043;41.766;26.204;2023-04-07T03:42:25;100822.25;;;6.48;94.13
10008;BME280;5043;41.766;26.204;2023-04-07T03:44:51;100822.44;;;6.45;94.68
10008;BME280;5043;41.766;26.204;2023-04-07T03:47:16;100903.09;;;6.88;95.44
10008;BME280;5043;41.766;26.204;2023-04-07T03:49:42;100911.66;;;6.91;94.68
10008;BME280;5043;41.766;26.204;2023-04-07T03:52:07;100904.47;;;6.95;95.37
10008;BME280;5043;41.766;26.204;2023-04-07T03:54:33;100903.81;;;7.07;94.72
10008;BME280;5043;41.766;26.204;2023-04-07T03:57:00;100908.72;;;7.13;94.49
10008;BME280;5043;41.766;26.204;2023-04-07T03:59:26;100901.28;;;7.21;92.76
10008;BME280;5043;41.766;26.204;2023-04-07T04:01:52;100938.97;;;7.36;91.67
10008;BME280;5043;41.766;26.204;2023-04-07T04:04:17;100850.75;;;7.02;90.78
10008;BME280;5043;41.766;26.204;2023-04-07T04:06:43;100924.47;;;7.60;90.25
10008;BME280;5043;41.766;26.204;2023-04-07T04:09:08;100920.34;;;7.40;88.93
10008;BME280;5043;41.766;26.204;2023-04-07T04:11:33;100926.59;;;7.38;88.34
10008;BME280;5043;41.766;26.204;2023-04-07T04:13:59;100931.66;;;7.41;88.82
10008;BME280;5043;41.766;26.204;2023-04-07T04:16:25;100930.06;;;7.38;88.04
10008;BME280;5043;41.766;26.204;2023-04-07T04:18:50;100916.88;;;7.24;86.96
10008;BME280;5043;41.766;26.204;2023-04-07T04:21:16;100932.34;;;7.29;86.09
10008;BME280;5043;41.766;26.204;2023-04-07T04:23:41;100930.66;;;7.28;86.31
10008;BME280;5043;41.766;26.204;2023-04-07T04:26:06;100864.38;;;6.93;87.09
10008;BME280;5043;41.766;26.204;2023-04-07T04:28:32;100975.34;;;7.26;85.73
10008;BME280;5043;41.766;26.204;2023-04-07T04:30:57;100948.34;;;7.24;86.73
10008;BME280;5043;41.766;26.204;2023-04-07T04:33:23;100955.53;;;7.36;87.88
10008;BME280;5043;41.766;26.204;2023-04-07T04:35:48;100972.47;;;7.31;87.84
10008;BME280;5043;41.766;26.204;2023-04-07T04:38:15;100939.53;;;7.25;88.63
10008;BME280;5043;41.766;26.204;2023-04-07T04:40:41;100958.25;;;7.35;88.36
10008;BME280;5043;41.766;26.204;2023-04-07T04:43:06;100969.91;;;7.29;87.94
10008;BME280;5043;41.766;26.204;2023-04-07T04:45:33;100938.88;;;7.22;88.54
10008;BME280;5043;41.766;26.204;2023-04-07T04:47:59;100945.53;;;7.27;89.55
10008;BME280;5043;41.766;26.204;2023-04-07T04:50:25;100904.72;;;7.06;90.38
10008;BME280;5043;41.766;26.204;2023-04-07T04:52:51;100896.53;;;7.12;90.31
10008;BME280;5043;41.766;26.204;2023-04-07T04:55:16;100955.81;;;7.47;89.88
10008;BME280;5043;41.766;26.204;2023-04-07T04:57:42;100962.47;;;7.53;90.58
10008;BME280;5043;41.766;26.204;2023-04-07T05:00:08;100891.91;;;7.17;89.73
10008;BME280;5043;41.766;26.204;2023-04-07T05:02:34;100925.06;;;7.34;89.43
10008;BME280;5043;41.766;26.204;2023-04-07T05:05:00;100971.97;;;7.55;89.25
10008;BME280;5043;41.766;26.204;2023-04-07T05:07:26;100967.06;;;7.49;89.09
10008;BME280;5043;41.766;26.204;2023-04-07T05:09:52;100974.44;;;7.58;88.91
10008;BME280;5043;41.766;26.204;2023-04-07T05:12:18;100966.91;;;7.68;88.93
10008;BME280;5043;41.766;26.204;2023-04-07T05:14:43;100900.41;;;7.36;87.29
10008;BME280;5043;41.766;26.204;2023-04-07T05:17:09;100999.25;;;7.84;85.38
10008;BME280;5043;41.766;26.204;2023-04-07T05:19:34;100902.72;;;7.42;84.28
10008;BME280;5043;41.766;26.204;2023-04-07T05:22:00;100978.56;;;7.94;83.88
10008;BME280;5043;41.766;26.204;2023-04-07T05:24:27;100903.06;;;7.52;83.20
10008;BME280;5043;41.766;26.204;2023-04-07T05:26:53;100978.03;;;8.03;84.74
10008;BME280;5043;41.766;26.204;2023-04-07T05:29:19;100989.78;;;8.11;84.50
10008;BME280;5043;41.766;26.204;2023-04-07T05:31:46;100990.81;;;8.24;83.67
10008;BME280;5043;41.766;26.204;2023-04-07T05:34:12;100991.59;;;8.26;82.81
10008;BME280;5043;41.766;26.204;2023-04-07T05:36:37;100990.56;;;8.29;82.10
10008;BME280;5043;41.766;26.204;2023-04-07T05:39:03;101001.94;;;8.29;82.65
10008;BME280;5043;41.766;26.204;2023-04-07T05:41:28;101012.75;;;8.39;82.69
10008;BME280;5043;41.766;26.204;2023-04-07T05:43:54;100994.56;;;8.50;80.56
10008;BME280;5043;41.766;26.204;2023-04-07T05:46:19;100915.63;;;7.92;81.65
10008;BME280;5043;41.766;26.204;2023-04-07T05:48:45;100995.88;;;8.43;79.17
10008;BME280;5043;41.766;26.204;2023-04-07T05:51:11;101000.84;;;8.48;80.41
10008;BME280;5043;41.766;26.204;2023-04-07T05:53:36;101002.09;;;8.56;80.94
10008;BME280;5043;41.766;26.204;2023-04-07T05:56:02;100980.47;;;8.51;80.70
10008;BME280;5043;41.766;26.204;2023-04-07T05:58:28;101006.63;;;8.68;79.24
10008;BME280;5043;41.766;26.204;2023-04-07T06:00:53;100997.41;;;8.61;80.51
10008;BME280;5043;41.766;26.204;2023-04-07T06:03:18;101015.47;;;8.67;77.08
10008;BME280;5043;41.766;26.204;2023-04-07T06:05:46;101020.44;;;8.58;76.46
10008;BME280;5043;41.766;26.204;2023-04-07T06:08:12;101019.47;;;8.59;77.85
10008;BME280;5043;41.766;26.204;2023-04-07T06:10:37;101021.94;;;8.62;77.65
10008;BME280;5043;41.766;26.204;2023-04-07T06:13:05;101007.56;;;8.53;76.54
10008;BME280;5043;41.766;26.204;2023-04-07T06:15:31;101024.13;;;8.69;75.97
10008;BME280;5043;41.766;26.204;2023-04-07T06:17:57;101026.34;;;8.61;74.36
10008;BME280;5043;41.766;26.204;2023-04-07T06:20:22;100945.28;;;8.24;73.94
10008;BME280;5043;41.766;26.204;2023-04-07T06:22:48;101021.13;;;8.75;73.20
10008;BME280;5043;41.766;26.204;2023-04-07T06:25:13;100940.63;;;8.29;74.07
10008;BME280;5043;41.766;26.204;2023-04-07T06:27:39;100958.69;;;8.49;75.04
10008;BME280;5043;41.766;26.204;2023-04-07T06:30:05;101032.03;;;8.83;75.70
10008;BME280;5043;41.766;26.204;2023-04-07T06:32:31;101022.16;;;8.87;74.77
10008;BME280;5043;41.766;26.204;2023-04-07T06:34:57;101016.88;;;8.73;75.10
10008;BME280;5043;41.766;26.204;2023-04-07T06:37:23;101021.50;;;8.69;74.71
10008;BME280;5043;41.766;26.204;2023-04-07T06:39:51;101036.63;;;8.80;75.09
10008;BME280;5043;41.766;26.204;2023-04-07T06:42:16;100994.75;;;8.47;74.27
10008;BME280;5043;41.766;26.204;2023-04-07T06:44:42;101045.53;;;8.77;72.60
10008;BME280;5043;41.766;26.204;2023-04-07T06:47:07;101033.06;;;8.81;71.77
10008;BME280;5043;41.766;26.204;2023-04-07T06:49:33;101045.97;;;8.99;70.39
10008;BME280;5043;41.766;26.204;2023-04-07T06:51:59;101059.72;;;9.05;65.18
10008;BME280;5043;41.766;26.204;2023-04-07T06:54:24;101093.53;;;9.11;65.15
10008;BME280;5043;41.766;26.204;2023-04-07T06:56:50;101075.13;;;9.25;63.86
10008;BME280;5043;41.766;26.204;2023-04-07T06:59:15;101057.72;;;9.08;63.23
10008;BME280;5043;41.766;26.204;2023-04-07T07:01:41;101067.78;;;9.16;62.33
10008;BME280;5043;41.766;26.204;2023-04-07T07:04:07;101060.81;;;9.15;61.33
10008;BME280;5043;41.766;26.204;2023-04-07T07:06:33;101063.47;;;9.29;61.66
10008;BME280;5043;41.766;26.204;2023-04-07T07:08:58;101069.41;;;9.32;61.59
10008;BME280;5043;41.766;26.204;2023-04-07T07:11:25;101062.44;;;9.31;59.89
10008;BME280;5043;41.766;26.204;2023-04-07T07:13:50;101065.53;;;9.38;59.60
10008;BME280;5043;41.766;26.204;2023-04-07T07:16:15;101065.00;;;9.47;58.61
10008;BME280;5043;41.766;26.204;2023-04-07T07:18:41;101077.38;;;9.59;58.73
10008;BME280;5043;41.766;26.204;2023-04-07T07:21:07;101024.84;;;9.15;55.07
10008;BME280;5043;41.766;26.204;2023-04-07T07:23:33;101088.72;;;9.47;57.60
10008;BME280;5043;41.766;26.204;2023-04-07T07:25:59;101103.06;;;9.41;55.66
10008;BME280;5043;41.766;26.204;2023-04-07T07:28:24;101078.50;;;9.27;54.84
10008;BME280;5043;41.766;26.204;2023-04-07T07:30:50;101089.72;;;9.44;53.79
10008;BME280;5043;41.766;26.204;2023-04-07T07:33:15;101112.94;;;9.52;53.61
10008;BME280;5043;41.766;26.204;2023-04-07T07:35:41;101096.59;;;9.61;55.54
10008;BME280;5043;41.766;26.204;2023-04-07T07:38:06;101096.09;;;9.68;55.72
10008;BME280;5043;41.766;26.204;2023-04-07T07:40:32;101081.63;;;9.61;54.33
10008;BME280;5043;41.766;26.204;2023-04-07T07:42:58;101029.63;;;9.37;52.60
10008;BME280;5043;41.766;26.204;2023-04-07T07:45:24;101116.53;;;9.79;54.33
10008;BME280;5043;41.766;26.204;2023-04-07T07:47:49;101115.41;;;9.83;53.48
10008;BME280;5043;41.766;26.204;2023-04-07T07:50:15;101094.03;;;9.74;53.45
10008;BME280;5043;41.766;26.204;2023-04-07T07:52:40;101068.00;;;9.55;52.31
10008;BME280;5043;41.766;26.204;2023-04-07T07:55:06;101093.69;;;9.80;53.64
10008;BME280;5043;41.766;26.204;2023-04-07T07:57:32;101081.03;;;9.85;52.56
10008;BME280;5043;41.766;26.204;2023-04-07T07:59:58;101105.97;;;9.93;51.22
10008;BME280;5043;41.766;26.204;2023-04-07T08:02:23;100976.88;;;9.24;49.45
10008;BME280;5043;41.766;26.204;2023-04-07T08:04:55;101074.09;;;9.84;49.58
10008;BME280;5043;41.766;26.204;2023-04-07T08:07:20;101097.78;;;9.98;51.16
10008;BME280;5043;41.766;26.204;2023-04-07T08:09:46;101059.03;;;9.72;51.55
10008;BME280;5043;41.766;26.204;2023-04-07T08:12:11;101119.03;;;10.09;52.08
10008;BME280;5043;41.766;26.204;2023-04-07T08:14:37;101111.38;;;10.32;51.01
10008;BME280;5043;41.766;26.204;2023-04-07T08:17:02;101054.41;;;10.03;50.89
10008;BME280;5043;41.766;26.204;2023-04-07T08:19:28;101110.97;;;10.38;50.18
10008;BME280;5043;41.766;26.204;2023-04-07T08:21:53;101107.56;;;10.24;49.31
10008;BME280;5043;41.766;26.204;2023-04-07T08:24:19;101140.97;;;10.09;48.89
10008;BME280;5043;41.766;26.204;2023-04-07T08:26:44;101115.75;;;10.05;48.24
10008;BME280;5043;41.766;26.204;2023-04-07T08:29:11;101096.06;;;9.97;48.52
10008;BME280;5043;41.766;26.204;2023-04-07T08:31:36;101046.72;;;9.72;48.43
10008;BME280;5043;41.766;26.204;2023-04-07T08:34:03;101110.56;;;10.04;49.16
10008;BME280;5043;41.766;26.204;2023-04-07T08:36:29;101119.50;;;10.01;49.08
10008;BME280;5043;41.766;26.204;2023-04-07T08:38:55;101118.97;;;10.24;48.94
10008;BME280;5043;41.766;26.204;2023-04-07T08:41:29;101116.84;;;10.29;47.46
10008;BME280;5043;41.766;26.204;2023-04-07T08:43:58;101109.00;;;10.42;46.91
10008;BME280;5043;41.766;26.204;2023-04-07T08:46:25;101068.69;;;9.99;48.20
10008;BME280;5043;41.766;26.204;2023-04-07T08:48:51;101139.50;;;10.19;47.51
10008;BME280;5043;41.766;26.204;2023-04-07T08:51:27;101125.94;;;10.11;48.75
10008;BME280;5043;41.766;26.204;2023-04-07T08:53:53;101112.09;;;10.08;48.98
10008;BME280;5043;41.766;26.204;2023-04-07T08:56:20;101109.81;;;10.16;48.19
10008;BME280;5043;41.766;26.204;2023-04-07T08:58:47;101097.38;;;10.18;48.81
10008;BME280;5043;41.766;26.204;2023-04-07T09:01:13;101104.25;;;10.06;47.81
10008;BME280;5043;41.766;26.204;2023-04-07T09:03:41;101113.75;;;10.09;46.04
10008;BME280;5043;41.766;26.204;2023-04-07T09:06:09;101050.28;;;9.71;46.93
10008;BME280;5043;41.766;26.204;2023-04-07T09:08:38;101125.56;;;10.17;46.68
10008;BME280;5043;41.766;26.204;2023-04-07T09:11:03;101120.00;;;10.22;45.55
10008;BME280;5043;41.766;26.204;2023-04-07T09:13:29;101118.56;;;10.30;44.48
10008;BME280;5043;41.766;26.204;2023-04-07T09:15:58;101113.13;;;10.46;44.04
10008;BME280;5043;41.766;26.204;2023-04-07T09:18:24;101117.44;;;10.74;43.96
10008;BME280;5043;41.766;26.204;2023-04-07T09:21:02;101138.84;;;10.96;43.22
10008;BME280;5043;41.766;26.204;2023-04-07T09:23:35;101106.75;;;11.02;41.35
10008;BME280;5043;41.766;26.204;2023-04-07T09:26:25;101111.97;;;11.29;41.82
10008;BME280;5043;41.766;26.204;2023-04-07T09:29:00;101103.00;;;11.31;40.79
10008;BME280;5043;41.766;26.204;2023-04-07T09:31:53;101100.47;;;11.30;40.19
10008;BME280;5043;41.766;26.204;2023-04-07T09:34:31;101105.94;;;11.27;40.66
10008;BME280;5043;41.766;26.204;2023-04-07T09:36:57;101103.81;;;11.44;40.57
10008;BME280;5043;41.766;26.204;2023-04-07T09:39:24;101107.13;;;11.23;41.33
10008;BME280;5043;41.766;26.204;2023-04-07T09:41:51;101117.34;;;11.15;40.65
10008;BME280;5043;41.766;26.204;2023-04-07T09:44:18;101103.59;;;11.35;38.87
10008;BME280;5043;41.766;26.204;2023-04-07T09:46:55;101031.66;;;11.44;38.30
10008;BME280;5043;41.766;26.204;2023-04-07T09:49:24;101040.03;;;11.25;37.77
10008;BME280;5043;41.766;26.204;2023-04-07T09:51:54;101093.31;;;12.06;38.23
10008;BME280;5043;41.766;26.204;2023-04-07T09:54:37;101104.19;;;12.14;38.48
10008;BME280;5043;41.766;26.204;2023-04-07T09:57:05;101091.41;;;12.31;38.74
10008;BME280;5043;41.766;26.204;2023-04-07T09:59:37;101100.09;;;12.33;38.13
10008;BME280;5043;41.766;26.204;2023-04-07T10:02:10;100984.03;;;11.82;37.42
10008;BME280;5043;41.766;26.204;2023-04-07T10:04:37;101082.31;;;12.12;37.82
10008;BME280;5043;41.766;26.204;2023-04-07T10:07:03;101024.94;;;12.12;37.45
10008;BME280;5043;41.766;26.204;2023-04-07T10:09:29;101067.78;;;12.17;36.55
10008;BME280;5043;41.766;26.204;2023-04-07T10:11:56;101087.53;;;12.24;36.09
10008;BME280;5043;41.766;26.204;2023-04-07T10:14:31;101086.97;;;12.32;36.68
10008;BME280;5043;41.766;26.204;2023-04-07T10:17:00;101087.34;;;12.51;35.77
10008;BME280;5043;41.766;26.204;2023-04-07T10:19:35;101081.72;;;12.67;35.81
10008;BME280;5043;41.766;26.204;2023-04-07T10:22:02;101082.59;;;12.67;35.32
10008;BME280;5043;41.766;26.204;2023-04-07T10:27:21;101041.50;;;13.31;34.96
10008;BME280;5043;41.766;26.204;2023-04-07T10:29:52;101066.75;;;13.91;33.92
10008;BME280;5043;41.766;26.204;2023-04-07T10:32:18;100997.28;;;13.43;34.08
10008;BME280;5043;41.766;26.204;2023-04-07T10:37:18;101058.19;;;13.98;33.56
10008;BME280;5043;41.766;26.204;2023-04-07T10:39:50;101009.22;;;13.59;33.41
10008;BME280;5043;41.766;26.204;2023-04-07T10:45:07;101030.78;;;13.55;33.40
10008;BME280;5043;41.766;26.204;2023-04-07T10:50:22;101004.97;;;13.68;32.72
10008;BME280;5043;41.766;26.204;2023-04-07T10:53:00;101073.88;;;14.01;33.05
10008;BME280;5043;41.766;26.204;2023-04-07T10:55:31;101071.50;;;13.54;34.00
10008;BME280;5043;41.766;26.204;2023-04-07T11:03:40;101075.19;;;12.83;35.32
10008;BME280;5043;41.766;26.204;2023-04-07T11:06:06;101004.47;;;12.62;35.33
10008;BME280;5043;41.766;26.204;2023-04-07T11:08:36;101081.31;;;13.07;34.87
10008;BME280;5043;41.766;26.204;2023-04-07T11:11:07;101082.06;;;13.32;35.64
10008;BME280;5043;41.766;26.204;2023-04-07T11:13:49;100848.59;;;12.13;34.97
10008;BME280;5043;41.766;26.204;2023-04-07T11:16:17;101099.31;;;13.02;35.16
10008;BME280;5043;41.766;26.204;2023-04-07T11:18:44;101083.41;;;13.26;35.47
10008;BME280;5043;41.766;26.204;2023-04-07T11:21:16;101008.38;;;13.48;35.70
10008;BME280;5043;41.766;26.204;2023-04-07T11:23:43;101014.75;;;13.56;35.64
10008;BME280;5043;41.766;26.204;2023-04-07T11:26:12;101096.78;;;13.47;36.54
10008;BME280;5043;41.766;26.204;2023-04-07T11:28:48;101069.66;;;13.76;36.55
10008;BME280;5043;41.766;26.204;2023-04-07T11:31:27;101016.53;;;13.67;35.61
10008;BME280;5043;41.766;26.204;2023-04-07T11:33:54;101071.78;;;14.27;35.85
10008;BME280;5043;41.766;26.204;2023-04-07T11:36:31;101077.78;;;14.51;35.79
10008;BME280;5043;41.766;26.204;2023-04-07T11:38:58;101086.44;;;14.85;35.14
10008;BME280;5043;41.766;26.204;2023-04-07T11:41:25;101086.81;;;15.01;35.19
10008;BME280;5043;41.766;26.204;2023-04-07T11:44:05;100993.19;;;14.88;35.81
10008;BME280;5043;41.766;26.204;2023-04-07T11:46:31;101042.34;;;15.44;34.71
10008;BME280;5043;41.766;26.204;2023-04-07T11:49:08;101051.28;;;15.73;34.97
10008;BME280;5043;41.766;26.204;2023-04-07T11:51:33;101049.84;;;16.00;34.85
10008;BME280;5043;41.766;26.204;2023-04-07T11:53:59;101009.81;;;16.30;34.19
10008;BME280;5043;41.766;26.204;2023-04-07T11:56:25;101025.81;;;16.68;33.54
10008;BME280;5043;41.766;26.204;2023-04-07T11:58:53;101058.56;;;16.30;35.03
10008;BME280;5043;41.766;26.204;2023-04-07T12:01:20;101037.72;;;16.45;35.40
10008;BME280;5043;41.766;26.204;2023-04-07T12:04:00;101053.84;;;16.91;34.60
10008;BME280;5043;41.766;26.204;2023-04-07T12:06:31;101051.63;;;16.77;34.80
10008;BME280;5043;41.766;26.204;2023-04-07T12:09:03;101050.66;;;16.69;35.25
10008;BME280;5043;41.766;26.204;2023-04-07T12:11:29;101045.84;;;17.01;34.58
10008;BME280;5043;41.766;26.204;2023-04-07T12:13:55;101023.00;;;17.81;33.27
10008;BME280;5043;41.766;26.204;2023-04-07T12:16:22;101042.31;;;18.38;33.18
10008;BME280;5043;41.766;26.204;2023-04-07T12:18:48;101048.28;;;18.67;33.18
10008;BME280;5043;41.766;26.204;2023-04-07T12:21:16;101041.06;;;18.85;32.33
10008;BME280;5043;41.766;26.204;2023-04-07T12:23:41;101047.72;;;18.99;31.63
10008;BME280;5043;41.766;26.204;2023-04-07T12:26:07;100893.53;;;18.03;31.92
10008;BME280;5043;41.766;26.204;2023-04-07T12:28:32;101042.41;;;19.50;31.68
10008;BME280;5043;41.766;26.204;2023-04-07T12:30:58;100985.16;;;19.51;30.63
10008;BME280;5043;41.766;26.204;2023-04-07T12:33:24;101040.72;;;19.91;30.25
10008;BME280;5043;41.766;26.204;2023-04-07T12:35:49;101037.53;;;19.96;30.07
10008;BME280;5043;41.766;26.204;2023-04-07T12:38:15;100976.34;;;21.05;28.36
10008;BME280;5043;41.766;26.204;2023-04-07T12:40:41;100979.69;;;21.15;28.52
10008;BME280;5043;41.766;26.204;2023-04-07T12:43:07;101005.81;;;21.30;27.71
10008;BME280;5043;41.766;26.204;2023-04-07T12:45:33;101027.63;;;21.43;27.71
10008;BME280;5043;41.766;26.204;2023-04-07T12:47:58;101016.69;;;22.67;26.48
10008;BME280;5043;41.766;26.204;2023-04-07T12:50:24;101021.63;;;23.01;26.17
10008;BME280;5043;41.766;26.204;2023-04-07T12:52:51;101018.56;;;23.04;25.69
10008;BME280;5043;41.766;26.204;2023-04-07T12:55:17;101022.13;;;23.77;24.72
10008;BME280;5043;41.766;26.204;2023-04-07T12:57:43;101014.16;;;24.77;23.72
10008;BME280;5043;41.766;26.204;2023-04-07T13:00:09;101011.06;;;25.07;23.55
10008;BME280;5043;41.766;26.204;2023-04-07T13:02:35;101010.31;;;24.71;23.70
10008;BME280;5043;41.766;26.204;2023-04-07T13:05:01;101006.97;;;24.69;23.81
10008;BME280;5043;41.766;26.204;2023-04-07T13:07:28;101003.69;;;25.50;23.09
10008;BME280;5043;41.766;26.204;2023-04-07T13:09:53;101010.53;;;24.91;23.63
10008;BME280;5043;41.766;26.204;2023-04-07T13:12:19;101002.00;;;24.45;24.01
10008;BME280;5043;41.766;26.204;2023-04-07T13:14:44;100958.22;;;24.92;23.32
10008;BME280;5043;41.766;26.204;2023-04-07T13:17:10;100997.97;;;26.33;22.27
10008;BME280;5043;41.766;26.204;2023-04-07T13:19:36;100995.13;;;26.87;21.55
10008;BME280;5043;41.766;26.204;2023-04-07T13:22:01;100936.41;;;26.75;21.28